BHS282 KPBI-MYAM
Flight info
| Callsign | BHS282 |
|---|---|
| Flight time | 0h 45m |
| Altitude | 13000 |
| Route | TURPS BR63V ZFP BR70V MRRSH |
| Aircraft | AT76/M-SDFGIRY/S |
Departure
| Time | 2026-05-08 22:08 |
|---|---|
| Airport | Palm Beach International Airport (KPBI) |
Arrival
| Time | 2026-05-08 22:54 |
|---|---|
| Airport | Leonard M. Thompson International Airport (MYAM) |
| Time | Latitude | Longitude | Altitude | Speed | Heading |
|---|---|---|---|---|---|
| 2026-05-08 21:53 | 26.68882 | -80.09328 | 18 ft | 0 kts | 166° |
| 2026-05-08 22:03 | 26.68847 | -80.09327 | 18 ft | 10 kts | 185° |
| 2026-05-08 22:03 | 26.68799 | -80.09383 | 18 ft | 11 kts | 268° |
| 2026-05-08 22:03 | 26.68797 | -80.09474 | 18 ft | 10 kts | 255° |
| 2026-05-08 22:04 | 26.68739 | -80.09549 | 19 ft | 17 kts | 218° |
| 2026-05-08 22:04 | 26.68656 | -80.09672 | 19 ft | 20 kts | 265° |
| 2026-05-08 22:04 | 26.68639 | -80.09816 | 19 ft | 17 kts | 263° |
| 2026-05-08 22:04 | 26.68623 | -80.09946 | 19 ft | 16 kts | 254° |
| 2026-05-08 22:05 | 26.68613 | -80.10062 | 19 ft | 14 kts | 263° |
| 2026-05-08 22:05 | 26.68592 | -80.10205 | 19 ft | 23 kts | 262° |
| 2026-05-08 22:05 | 26.68561 | -80.10381 | 19 ft | 21 kts | 261° |
| 2026-05-08 22:05 | 26.68557 | -80.10541 | 19 ft | 19 kts | 274° |
| 2026-05-08 22:06 | 26.68564 | -80.10686 | 19 ft | 17 kts | 274° |
| 2026-05-08 22:06 | 26.68547 | -80.10811 | 19 ft | 15 kts | 218° |
| 2026-05-08 22:06 | 26.68450 | -80.10812 | 19 ft | 12 kts | 177° |
| 2026-05-08 22:06 | 26.68364 | -80.10822 | 19 ft | 10 kts | 163° |
| 2026-05-08 22:07 | 26.68320 | -80.10778 | 19 ft | 7 kts | 109° |
| 2026-05-08 22:07 | 26.68316 | -80.10729 | 19 ft | 5 kts | 92° |
| 2026-05-08 22:07 | 26.68306 | -80.10481 | 19 ft | 65 kts | 93° |
| 2026-05-08 22:07 | 26.68277 | -80.09776 | 24 ft | 110 kts | 86° |
| 2026-05-08 22:08 | 26.68284 | -80.08956 | 331 ft | 106 kts | 90° |
| 2026-05-08 22:08 | 26.68240 | -80.08137 | 566 ft | 107 kts | 93° |
| 2026-05-08 22:08 | 26.68180 | -80.07265 | 735 ft | 121 kts | 91° |
| 2026-05-08 22:08 | 26.68169 | -80.06203 | 727 ft | 149 kts | 90° |
| 2026-05-08 22:09 | 26.68158 | -80.04948 | 776 ft | 170 kts | 90° |
| 2026-05-08 22:09 | 26.68147 | -80.03588 | 990 ft | 178 kts | 90° |
| 2026-05-08 22:09 | 26.68138 | -80.02191 | 1276 ft | 181 kts | 90° |
| 2026-05-08 22:09 | 26.68130 | -80.00778 | 1589 ft | 181 kts | 90° |
| 2026-05-08 22:10 | 26.68122 | -79.99377 | 1863 ft | 184 kts | 90° |
| 2026-05-08 22:10 | 26.68113 | -79.97942 | 2135 ft | 186 kts | 89° |
| 2026-05-08 22:10 | 26.68104 | -79.96491 | 2414 ft | 188 kts | 89° |
| 2026-05-08 22:10 | 26.68095 | -79.95026 | 2688 ft | 189 kts | 89° |
| 2026-05-08 22:11 | 26.68087 | -79.93546 | 2941 ft | 192 kts | 89° |
| 2026-05-08 22:11 | 26.68078 | -79.92045 | 3191 ft | 194 kts | 89° |
| 2026-05-08 22:11 | 26.68071 | -79.90535 | 3464 ft | 194 kts | 89° |
| 2026-05-08 22:11 | 26.68060 | -79.89007 | 3686 ft | 198 kts | 89° |
| 2026-05-08 22:12 | 26.68051 | -79.87480 | 3988 ft | 197 kts | 89° |
| 2026-05-08 22:12 | 26.68041 | -79.85953 | 4283 ft | 196 kts | 89° |
| 2026-05-08 22:12 | 26.68032 | -79.84436 | 4515 ft | 198 kts | 89° |
| 2026-05-08 22:12 | 26.68020 | -79.82899 | 4854 ft | 193 kts | 89° |
| 2026-05-08 22:13 | 26.68010 | -79.81484 | 5395 ft | 178 kts | 89° |
| 2026-05-08 22:13 | 26.68001 | -79.80089 | 5584 ft | 183 kts | 89° |
| 2026-05-08 22:13 | 26.67992 | -79.78661 | 5817 ft | 187 kts | 90° |
| 2026-05-08 22:13 | 26.67982 | -79.77204 | 6073 ft | 187 kts | 90° |
| 2026-05-08 22:14 | 26.67971 | -79.75748 | 6299 ft | 189 kts | 90° |
| 2026-05-08 22:14 | 26.67963 | -79.74280 | 6556 ft | 189 kts | 90° |
| 2026-05-08 22:14 | 26.67959 | -79.72797 | 6786 ft | 191 kts | 90° |
| 2026-05-08 22:14 | 26.67955 | -79.71314 | 7023 ft | 191 kts | 90° |
| 2026-05-08 22:15 | 26.67950 | -79.69849 | 7264 ft | 191 kts | 90° |
| 2026-05-08 22:15 | 26.67946 | -79.68346 | 7466 ft | 193 kts | 91° |
| 2026-05-08 22:15 | 26.67940 | -79.66857 | 7694 ft | 193 kts | 91° |
| 2026-05-08 22:15 | 26.67935 | -79.65349 | 7908 ft | 194 kts | 91° |
| 2026-05-08 22:16 | 26.67930 | -79.63835 | 8115 ft | 195 kts | 91° |
| 2026-05-08 22:16 | 26.67926 | -79.62328 | 8309 ft | 196 kts | 91° |
| 2026-05-08 22:16 | 26.67920 | -79.60800 | 8511 ft | 197 kts | 91° |
| 2026-05-08 22:16 | 26.67914 | -79.59256 | 8709 ft | 198 kts | 92° |
| 2026-05-08 22:17 | 26.67909 | -79.57732 | 8892 ft | 199 kts | 92° |
| 2026-05-08 22:17 | 26.67903 | -79.56169 | 9077 ft | 200 kts | 92° |
| 2026-05-08 22:17 | 26.67896 | -79.54610 | 9270 ft | 201 kts | 92° |
| 2026-05-08 22:17 | 26.67890 | -79.53049 | 9470 ft | 200 kts | 92° |
| 2026-05-08 22:18 | 26.67884 | -79.51500 | 9631 ft | 202 kts | 93° |
| 2026-05-08 22:18 | 26.67876 | -79.49931 | 9817 ft | 202 kts | 92° |
| 2026-05-08 22:18 | 26.67869 | -79.48346 | 9992 ft | 203 kts | 92° |
| 2026-05-08 22:18 | 26.67859 | -79.46727 | 10045 ft | 210 kts | 92° |
| 2026-05-08 22:19 | 26.67853 | -79.45124 | 10340 ft | 203 kts | 92° |
| 2026-05-08 22:19 | 26.67846 | -79.43567 | 10613 ft | 198 kts | 92° |
| 2026-05-08 22:19 | 26.67838 | -79.42057 | 10886 ft | 192 kts | 92° |
| 2026-05-08 22:19 | 26.67831 | -79.40597 | 11152 ft | 185 kts | 92° |
| 2026-05-08 22:20 | 26.67825 | -79.39195 | 11416 ft | 179 kts | 92° |
| 2026-05-08 22:20 | 26.67818 | -79.37837 | 11682 ft | 171 kts | 92° |
| 2026-05-08 22:20 | 26.67812 | -79.36526 | 11943 ft | 163 kts | 92° |
| 2026-05-08 22:20 | 26.67816 | -79.35298 | 12125 ft | 161 kts | 86° |
| 2026-05-08 22:21 | 26.67873 | -79.34425 | 11974 ft | 179 kts | 86° |
| 2026-05-08 22:21 | 26.67930 | -79.32482 | 11983 ft | 189 kts | 93° |
| 2026-05-08 22:21 | 26.67884 | -79.30991 | 12016 ft | 196 kts | 94° |
| 2026-05-08 22:21 | 26.67841 | -79.29435 | 12036 ft | 204 kts | 93° |
| 2026-05-08 22:22 | 26.67809 | -79.27846 | 12142 ft | 206 kts | 93° |
| 2026-05-08 22:22 | 26.67782 | -79.26244 | 12261 ft | 208 kts | 92° |
| 2026-05-08 22:22 | 26.67760 | -79.24625 | 12382 ft | 209 kts | 92° |
| 2026-05-08 22:22 | 26.67743 | -79.23010 | 12502 ft | 210 kts | 92° |
| 2026-05-08 22:23 | 26.67729 | -79.21370 | 12620 ft | 212 kts | 91° |
| 2026-05-08 22:23 | 26.67716 | -79.19710 | 12738 ft | 213 kts | 91° |
| 2026-05-08 22:23 | 26.67704 | -79.18043 | 12859 ft | 214 kts | 91° |
| 2026-05-08 22:23 | 26.67692 | -79.16393 | 12977 ft | 215 kts | 91° |
| 2026-05-08 22:24 | 26.67680 | -79.14700 | 13064 ft | 218 kts | 91° |
| 2026-05-08 22:24 | 26.67634 | -79.12991 | 13081 ft | 223 kts | 93° |
| 2026-05-08 22:24 | 26.67579 | -79.11227 | 13083 ft | 229 kts | 93° |
| 2026-05-08 22:24 | 26.67522 | -79.09425 | 13084 ft | 235 kts | 93° |
| 2026-05-08 22:25 | 26.67463 | -79.07601 | 13087 ft | 240 kts | 93° |
| 2026-05-08 22:25 | 26.67216 | -79.05761 | 13085 ft | 241 kts | 110° |
| 2026-05-08 22:25 | 26.66651 | -79.03986 | 13087 ft | 245 kts | 111° |
| 2026-05-08 22:25 | 26.66065 | -79.02169 | 13084 ft | 248 kts | 111° |
| 2026-05-08 22:26 | 26.65475 | -79.00342 | 13084 ft | 251 kts | 111° |
| 2026-05-08 22:26 | 26.64881 | -78.98504 | 13083 ft | 254 kts | 111° |
| 2026-05-08 22:26 | 26.64281 | -78.96657 | 13087 ft | 256 kts | 111° |
| 2026-05-08 22:26 | 26.63665 | -78.94759 | 13087 ft | 258 kts | 111° |
| 2026-05-08 22:27 | 26.63056 | -78.92883 | 13087 ft | 259 kts | 111° |
| 2026-05-08 22:27 | 26.62443 | -78.90993 | 13088 ft | 261 kts | 111° |
| 2026-05-08 22:27 | 26.61824 | -78.89090 | 13090 ft | 262 kts | 111° |
| 2026-05-08 22:27 | 26.61193 | -78.87149 | 13089 ft | 263 kts | 111° |
| 2026-05-08 22:28 | 26.60568 | -78.85229 | 13085 ft | 264 kts | 111° |
| 2026-05-08 22:28 | 26.59943 | -78.83311 | 13088 ft | 262 kts | 111° |
| 2026-05-08 22:28 | 26.59317 | -78.81391 | 13088 ft | 263 kts | 111° |
| 2026-05-08 22:28 | 26.58690 | -78.79466 | 13073 ft | 264 kts | 111° |
| 2026-05-08 22:29 | 26.58059 | -78.77531 | 13079 ft | 263 kts | 111° |
| 2026-05-08 22:29 | 26.57613 | -78.76164 | 13073 ft | 263 kts | 111° |
| 2026-05-08 22:29 | 26.57112 | -78.74634 | 13087 ft | 264 kts | 111° |
| 2026-05-08 22:29 | 26.56480 | -78.72695 | 13092 ft | 264 kts | 111° |
| 2026-05-08 22:30 | 26.55857 | -78.70789 | 13091 ft | 265 kts | 111° |
| 2026-05-08 22:30 | 26.55529 | -78.68772 | 13112 ft | 265 kts | 92° |
| 2026-05-08 22:30 | 26.55473 | -78.66710 | 13098 ft | 267 kts | 92° |
| 2026-05-08 22:30 | 26.55425 | -78.64635 | 13095 ft | 267 kts | 92° |
| 2026-05-08 22:31 | 26.55378 | -78.62559 | 13091 ft | 269 kts | 91° |
| 2026-05-08 22:31 | 26.55331 | -78.60479 | 13094 ft | 269 kts | 92° |
| 2026-05-08 22:31 | 26.55284 | -78.58387 | 13101 ft | 269 kts | 92° |
| 2026-05-08 22:31 | 26.55236 | -78.56275 | 13107 ft | 270 kts | 92° |
| 2026-05-08 22:32 | 26.55188 | -78.54182 | 13101 ft | 271 kts | 92° |
| 2026-05-08 22:32 | 26.55140 | -78.52080 | 13097 ft | 272 kts | 91° |
| 2026-05-08 22:32 | 26.55091 | -78.49954 | 13093 ft | 273 kts | 91° |
| 2026-05-08 22:32 | 26.55041 | -78.47848 | 13095 ft | 273 kts | 91° |
| 2026-05-08 22:33 | 26.54992 | -78.45717 | 13090 ft | 273 kts | 91° |
| 2026-05-08 22:33 | 26.54942 | -78.43607 | 13088 ft | 273 kts | 91° |
| 2026-05-08 22:33 | 26.54893 | -78.41505 | 13089 ft | 273 kts | 91° |
| 2026-05-08 22:33 | 26.54843 | -78.39366 | 13089 ft | 273 kts | 91° |
| 2026-05-08 22:34 | 26.54793 | -78.37274 | 13088 ft | 273 kts | 91° |
| 2026-05-08 22:34 | 26.54742 | -78.35139 | 13092 ft | 273 kts | 91° |
| 2026-05-08 22:34 | 26.54691 | -78.33028 | 13084 ft | 273 kts | 92° |
| 2026-05-08 22:34 | 26.54640 | -78.30911 | 13085 ft | 273 kts | 92° |
| 2026-05-08 22:35 | 26.54587 | -78.28777 | 13085 ft | 273 kts | 92° |
| 2026-05-08 22:35 | 26.54536 | -78.26686 | 13085 ft | 272 kts | 92° |
| 2026-05-08 22:35 | 26.54483 | -78.24571 | 13085 ft | 272 kts | 92° |
| 2026-05-08 22:35 | 26.54430 | -78.22450 | 13086 ft | 272 kts | 92° |
| 2026-05-08 22:36 | 26.54377 | -78.20357 | 13085 ft | 272 kts | 92° |
| 2026-05-08 22:36 | 26.54324 | -78.18238 | 13086 ft | 272 kts | 92° |
| 2026-05-08 22:36 | 26.54270 | -78.16118 | 13085 ft | 272 kts | 92° |
| 2026-05-08 22:36 | 26.54217 | -78.14017 | 13086 ft | 272 kts | 92° |
| 2026-05-08 22:37 | 26.54163 | -78.11925 | 13087 ft | 272 kts | 92° |
| 2026-05-08 22:37 | 26.54110 | -78.09816 | 13086 ft | 272 kts | 92° |
| 2026-05-08 22:37 | 26.54055 | -78.07713 | 13085 ft | 272 kts | 92° |
| 2026-05-08 22:37 | 26.54001 | -78.05602 | 13085 ft | 272 kts | 92° |
| 2026-05-08 22:38 | 26.53945 | -78.03494 | 13088 ft | 272 kts | 92° |
| 2026-05-08 22:38 | 26.53889 | -78.01377 | 13087 ft | 272 kts | 92° |
| 2026-05-08 22:38 | 26.53833 | -77.99286 | 13086 ft | 272 kts | 92° |
| 2026-05-08 22:38 | 26.53776 | -77.97162 | 13087 ft | 272 kts | 92° |
| 2026-05-08 22:39 | 26.53719 | -77.95071 | 13086 ft | 272 kts | 92° |
| 2026-05-08 22:39 | 26.53663 | -77.92946 | 13087 ft | 272 kts | 92° |
| 2026-05-08 22:39 | 26.53605 | -77.90826 | 13087 ft | 272 kts | 91° |
| 2026-05-08 22:39 | 26.53548 | -77.88718 | 12869 ft | 281 kts | 91° |
| 2026-05-08 22:40 | 26.53488 | -77.86515 | 12530 ft | 284 kts | 91° |
| 2026-05-08 22:40 | 26.53449 | -77.85066 | 12298 ft | 285 kts | 91° |
| 2026-05-08 22:40 | 26.53369 | -77.82119 | 11832 ft | 288 kts | 92° |
| 2026-05-08 22:40 | 26.53307 | -77.79882 | 11482 ft | 289 kts | 92° |
| 2026-05-08 22:41 | 26.53244 | -77.77636 | 11129 ft | 290 kts | 92° |
| 2026-05-08 22:41 | 26.53181 | -77.75401 | 10780 ft | 290 kts | 92° |
| 2026-05-08 22:41 | 26.53139 | -77.73901 | 10559 ft | 290 kts | 92° |
| 2026-05-08 22:41 | 26.53053 | -77.70915 | 10151 ft | 288 kts | 92° |
| 2026-05-08 22:42 | 26.52990 | -77.68669 | 9839 ft | 287 kts | 92° |
| 2026-05-08 22:42 | 26.52926 | -77.66466 | 9533 ft | 286 kts | 92° |
| 2026-05-08 22:42 | 26.52861 | -77.64254 | 9225 ft | 284 kts | 92° |
| 2026-05-08 22:42 | 26.52798 | -77.62073 | 8921 ft | 283 kts | 92° |
| 2026-05-08 22:43 | 26.52733 | -77.59882 | 8614 ft | 281 kts | 92° |
| 2026-05-08 22:43 | 26.52670 | -77.57725 | 8304 ft | 276 kts | 92° |
| 2026-05-08 22:43 | 26.52607 | -77.55619 | 7986 ft | 268 kts | 92° |
| 2026-05-08 22:43 | 26.52547 | -77.53562 | 7669 ft | 262 kts | 92° |
| 2026-05-08 22:44 | 26.52486 | -77.51547 | 7353 ft | 256 kts | 91° |
| 2026-05-08 22:44 | 26.52427 | -77.49586 | 7040 ft | 252 kts | 91° |
| 2026-05-08 22:44 | 26.52371 | -77.47669 | 6729 ft | 248 kts | 91° |
| 2026-05-08 22:44 | 26.52312 | -77.45752 | 6415 ft | 244 kts | 91° |
| 2026-05-08 22:45 | 26.52257 | -77.43890 | 6103 ft | 240 kts | 91° |
| 2026-05-08 22:45 | 26.52201 | -77.42046 | 5790 ft | 237 kts | 91° |
| 2026-05-08 22:45 | 26.52145 | -77.40215 | 5471 ft | 235 kts | 91° |
| 2026-05-08 22:45 | 26.52088 | -77.38398 | 5155 ft | 232 kts | 91° |
| 2026-05-08 22:46 | 26.52035 | -77.36627 | 4843 ft | 230 kts | 91° |
| 2026-05-08 22:46 | 26.51979 | -77.34851 | 4532 ft | 229 kts | 91° |
| 2026-05-08 22:46 | 26.51925 | -77.33086 | 4219 ft | 227 kts | 91° |
| 2026-05-08 22:46 | 26.51888 | -77.31313 | 3900 ft | 226 kts | 88° |
| 2026-05-08 22:47 | 26.52055 | -77.29585 | 3592 ft | 224 kts | 80° |
| 2026-05-08 22:47 | 26.52319 | -77.27884 | 3283 ft | 223 kts | 80° |
| 2026-05-08 22:47 | 26.52585 | -77.26189 | 2971 ft | 222 kts | 80° |
| 2026-05-08 22:47 | 26.52853 | -77.24496 | 2662 ft | 221 kts | 80° |
| 2026-05-08 22:48 | 26.53124 | -77.22800 | 2347 ft | 220 kts | 80° |
| 2026-05-08 22:48 | 26.53394 | -77.21133 | 2063 ft | 218 kts | 80° |
| 2026-05-08 22:48 | 26.53656 | -77.19499 | 2000 ft | 205 kts | 80° |
| 2026-05-08 22:48 | 26.53906 | -77.17948 | 1993 ft | 201 kts | 80° |
| 2026-05-08 22:49 | 26.54152 | -77.16421 | 1995 ft | 199 kts | 80° |
| 2026-05-08 22:49 | 26.54635 | -77.13428 | 1995 ft | 194 kts | 80° |
| 2026-05-08 22:49 | 26.54862 | -77.12007 | 1982 ft | 177 kts | 80° |
| 2026-05-08 22:50 | 26.55067 | -77.10709 | 1979 ft | 162 kts | 80° |
| 2026-05-08 22:50 | 26.55253 | -77.09521 | 1975 ft | 147 kts | 80° |
| 2026-05-08 22:50 | 26.55418 | -77.08463 | 1973 ft | 131 kts | 80° |
| 2026-05-08 22:50 | 26.55517 | -77.07481 | 1803 ft | 131 kts | 94° |
| 2026-05-08 22:51 | 26.55173 | -77.06487 | 1518 ft | 143 kts | 114° |
| 2026-05-08 22:51 | 26.54753 | -77.05520 | 1447 ft | 134 kts | 101° |
| 2026-05-08 22:51 | 26.54392 | -77.04547 | 1344 ft | 130 kts | 114° |
| 2026-05-08 22:51 | 26.53941 | -77.03738 | 1342 ft | 117 kts | 127° |
| 2026-05-08 22:52 | 26.53292 | -77.03183 | 1221 ft | 122 kts | 153° |
| 2026-05-08 22:52 | 26.52422 | -77.03249 | 1049 ft | 135 kts | 211° |
| 2026-05-08 22:52 | 26.51806 | -77.04041 | 939 ft | 129 kts | 219° |
| 2026-05-08 22:52 | 26.51240 | -77.04797 | 695 ft | 133 kts | 250° |
| 2026-05-08 22:53 | 26.51136 | -77.05814 | 460 ft | 131 kts | 264° |
| 2026-05-08 22:53 | 26.51064 | -77.06815 | 196 ft | 128 kts | 269° |
| 2026-05-08 22:53 | 26.51035 | -77.07756 | 23 ft | 115 kts | 266° |
| 2026-05-08 22:53 | 26.51013 | -77.08563 | 14 ft | 92 kts | 267° |
| 2026-05-08 22:54 | 26.50999 | -77.09028 | 10 ft | 30 kts | 268° |
| 2026-05-08 22:54 | 26.50995 | -77.09235 | 10 ft | 23 kts | 267° |
| 2026-05-08 22:54 | 26.50991 | -77.09403 | 10 ft | 20 kts | 268° |
| 2026-05-08 22:54 | 26.51049 | -77.09475 | 11 ft | 12 kts | 1° |
| 2026-05-08 22:55 | 26.51111 | -77.09453 | 11 ft | 8 kts | 72° |
| 2026-05-08 22:55 | 26.51115 | -77.09373 | 11 ft | 14 kts | 89° |
| 2026-05-08 22:55 | 26.51120 | -77.09225 | 10 ft | 23 kts | 86° |
| 2026-05-08 22:55 | 26.51122 | -77.09024 | 10 ft | 28 kts | 89° |
| 2026-05-08 22:56 | 26.51130 | -77.08819 | 11 ft | 23 kts | 87° |
| 2026-05-08 22:56 | 26.51133 | -77.08643 | 13 ft | 25 kts | 86° |
| 2026-05-08 22:56 | 26.51141 | -77.08419 | 13 ft | 32 kts | 88° |
| 2026-05-08 22:56 | 26.51147 | -77.08192 | 14 ft | 25 kts | 88° |
| 2026-05-08 22:57 | 26.51151 | -77.08031 | 16 ft | 16 kts | 88° |
| 2026-05-08 22:57 | 26.51160 | -77.07922 | 15 ft | 11 kts | 70° |
| 2026-05-08 22:57 | 26.51198 | -77.07847 | 13 ft | 10 kts | 60° |
| 2026-05-08 22:57 | 26.51241 | -77.07821 | 13 ft | 7 kts | 349° |
| 2026-05-08 22:58 | 26.51281 | -77.07816 | 14 ft | 0 kts | 14° |
| 2026-05-08 22:58 | 26.51285 | -77.07815 | 13 ft | 0 kts | 12° |